Albee, South Dakota
Current Conditions -  °F | °C
As of 10:13 AM on Sunday 23 Nov 2014 (Local Time) from KDXX Reporting Station
Moderate Rain Moderate Rain  
Wind Chill:   Ceiling: Unl
Heat Index:   Visibility: 10mi
Dew Point:   Wind: 9mph
Humidity: 87%   Direction: 290°WNW
Pressure: 29.49"   Gusts: NA
Location:  45.0205°N, 96.5453°W
Report Text: KDXX 231613Z AUTO 29008KT 10SM RA SCT046 05/03 A2949 RMK AO2
Loading
Personal Weather Stations






























Interactive Weather Map New forecast layout! Learn more

10-Day Weather Forecast

Advertisements
Track Severe Weather on mobile